sensor_id;sensor_type;location;lat;lon;timestamp;P1;durP1;ratioP1;P2;durP2;ratioP2
38457;SDS011;24239;48.058;10.486;2023-07-13T00:02:11;9.57;;;8.60;;
38457;SDS011;24239;48.058;10.486;2023-07-13T00:04:40;12.52;;;8.18;;
38457;SDS011;24239;48.058;10.486;2023-07-13T00:07:08;9.52;;;8.05;;
38457;SDS011;24239;48.058;10.486;2023-07-13T00:09:41;9.18;;;7.22;;
38457;SDS011;24239;48.058;10.486;2023-07-13T00:12:28;15.07;;;8.32;;
38457;SDS011;24239;48.058;10.486;2023-07-13T00:15:00;11.10;;;7.97;;
38457;SDS011;24239;48.058;10.486;2023-07-13T00:17:29;10.77;;;7.80;;
38457;SDS011;24239;48.058;10.486;2023-07-13T00:19:55;10.82;;;7.95;;
38457;SDS011;24239;48.058;10.486;2023-07-13T00:22:22;11.73;;;8.40;;
38457;SDS011;24239;48.058;10.486;2023-07-13T00:24:51;9.68;;;7.38;;
38457;SDS011;24239;48.058;10.486;2023-07-13T00:27:24;9.80;;;7.82;;
38457;SDS011;24239;48.058;10.486;2023-07-13T00:29:57;11.15;;;7.97;;
38457;SDS011;24239;48.058;10.486;2023-07-13T00:32:24;10.02;;;6.68;;
38457;SDS011;24239;48.058;10.486;2023-07-13T00:34:51;11.10;;;6.85;;
38457;SDS011;24239;48.058;10.486;2023-07-13T00:37:17;10.25;;;7.30;;
38457;SDS011;24239;48.058;10.486;2023-07-13T00:39:43;11.25;;;7.25;;
38457;SDS011;24239;48.058;10.486;2023-07-13T00:42:09;10.70;;;7.85;;
38457;SDS011;24239;48.058;10.486;2023-07-13T00:44:36;10.98;;;7.47;;
38457;SDS011;24239;48.058;10.486;2023-07-13T00:47:02;10.43;;;7.00;;
38457;SDS011;24239;48.058;10.486;2023-07-13T00:49:29;10.27;;;7.15;;
38457;SDS011;24239;48.058;10.486;2023-07-13T00:52:07;9.45;;;7.85;;
38457;SDS011;24239;48.058;10.486;2023-07-13T00:54:41;8.32;;;7.10;;
38457;SDS011;24239;48.058;10.486;2023-07-13T00:57:11;10.65;;;7.47;;
38457;SDS011;24239;48.058;10.486;2023-07-13T00:59:43;9.57;;;6.68;;
38457;SDS011;24239;48.058;10.486;2023-07-13T01:02:16;11.00;;;7.53;;
38457;SDS011;24239;48.058;10.486;2023-07-13T01:04:46;12.48;;;7.53;;
38457;SDS011;24239;48.058;10.486;2023-07-13T01:07:14;12.75;;;8.82;;
38457;SDS011;24239;48.058;10.486;2023-07-13T01:09:41;11.40;;;7.15;;
38457;SDS011;24239;48.058;10.486;2023-07-13T01:12:11;10.73;;;7.32;;
38457;SDS011;24239;48.058;10.486;2023-07-13T01:14:42;10.10;;;7.15;;
38457;SDS011;24239;48.058;10.486;2023-07-13T01:17:11;9.82;;;6.80;;
38457;SDS011;24239;48.058;10.486;2023-07-13T01:19:43;10.52;;;7.43;;
38457;SDS011;24239;48.058;10.486;2023-07-13T01:22:11;9.13;;;7.05;;
38457;SDS011;24239;48.058;10.486;2023-07-13T01:24:39;8.07;;;6.70;;
38457;SDS011;24239;48.058;10.486;2023-07-13T01:27:08;11.57;;;6.95;;
38457;SDS011;24239;48.058;10.486;2023-07-13T01:29:36;9.68;;;6.68;;
38457;SDS011;24239;48.058;10.486;2023-07-13T01:32:10;11.15;;;7.10;;
38457;SDS011;24239;48.058;10.486;2023-07-13T01:34:38;9.70;;;6.40;;
38457;SDS011;24239;48.058;10.486;2023-07-13T01:37:11;16.10;;;6.90;;
38457;SDS011;24239;48.058;10.486;2023-07-13T01:39:41;13.88;;;8.13;;
38457;SDS011;24239;48.058;10.486;2023-07-13T01:42:09;11.32;;;6.97;;
38457;SDS011;24239;48.058;10.486;2023-07-13T01:44:37;11.30;;;6.72;;
38457;SDS011;24239;48.058;10.486;2023-07-13T01:47:05;8.40;;;7.10;;
38457;SDS011;24239;48.058;10.486;2023-07-13T01:49:32;10.27;;;7.30;;
38457;SDS011;24239;48.058;10.486;2023-07-13T01:51:58;10.70;;;7.82;;
38457;SDS011;24239;48.058;10.486;2023-07-13T01:54:26;10.95;;;6.93;;
38457;SDS011;24239;48.058;10.486;2023-07-13T01:56:55;9.13;;;6.30;;
38457;SDS011;24239;48.058;10.486;2023-07-13T01:59:24;8.73;;;6.80;;
38457;SDS011;24239;48.058;10.486;2023-07-13T02:01:52;15.68;;;8.15;;
38457;SDS011;24239;48.058;10.486;2023-07-13T02:04:17;12.20;;;7.00;;
38457;SDS011;24239;48.058;10.486;2023-07-13T02:06:43;13.48;;;7.82;;
38457;SDS011;24239;48.058;10.486;2023-07-13T02:09:10;14.57;;;7.72;;
38457;SDS011;24239;48.058;10.486;2023-07-13T02:11:36;12.95;;;8.18;;
38457;SDS011;24239;48.058;10.486;2023-07-13T02:14:02;10.98;;;8.20;;
38457;SDS011;24239;48.058;10.486;2023-07-13T02:16:32;14.50;;;9.50;;
38457;SDS011;24239;48.058;10.486;2023-07-13T02:19:02;13.52;;;8.82;;
38457;SDS011;24239;48.058;10.486;2023-07-13T02:21:30;15.73;;;8.93;;
38457;SDS011;24239;48.058;10.486;2023-07-13T02:23:59;11.93;;;8.60;;
38457;SDS011;24239;48.058;10.486;2023-07-13T02:26:28;17.13;;;10.80;;
38457;SDS011;24239;48.058;10.486;2023-07-13T02:28:58;17.48;;;10.98;;
38457;SDS011;24239;48.058;10.486;2023-07-13T02:31:26;17.20;;;10.40;;
38457;SDS011;24239;48.058;10.486;2023-07-13T02:33:55;14.45;;;9.55;;
38457;SDS011;24239;48.058;10.486;2023-07-13T02:36:23;16.13;;;10.68;;
38457;SDS011;24239;48.058;10.486;2023-07-13T02:38:52;13.70;;;9.35;;
38457;SDS011;24239;48.058;10.486;2023-07-13T02:41:20;17.05;;;11.23;;
38457;SDS011;24239;48.058;10.486;2023-07-13T02:43:48;12.23;;;10.32;;
38457;SDS011;24239;48.058;10.486;2023-07-13T02:46:16;17.27;;;10.70;;
38457;SDS011;24239;48.058;10.486;2023-07-13T02:48:45;13.30;;;10.23;;
38457;SDS011;24239;48.058;10.486;2023-07-13T02:51:12;20.55;;;11.77;;
38457;SDS011;24239;48.058;10.486;2023-07-13T02:53:37;14.88;;;11.50;;
38457;SDS011;24239;48.058;10.486;2023-07-13T02:56:04;18.75;;;11.90;;
38457;SDS011;24239;48.058;10.486;2023-07-13T02:58:30;19.33;;;11.80;;
38457;SDS011;24239;48.058;10.486;2023-07-13T03:00:59;18.63;;;11.95;;
38457;SDS011;24239;48.058;10.486;2023-07-13T03:03:35;18.02;;;11.77;;
38457;SDS011;24239;48.058;10.486;2023-07-13T03:06:05;13.05;;;9.90;;
38457;SDS011;24239;48.058;10.486;2023-07-13T03:08:34;13.45;;;10.32;;
38457;SDS011;24239;48.058;10.486;2023-07-13T03:11:06;24.10;;;12.77;;
38457;SDS011;24239;48.058;10.486;2023-07-13T03:13:37;15.82;;;10.23;;
38457;SDS011;24239;48.058;10.486;2023-07-13T03:16:08;13.07;;;9.60;;
38457;SDS011;24239;48.058;10.486;2023-07-13T03:18:38;13.85;;;9.27;;
38457;SDS011;24239;48.058;10.486;2023-07-13T03:21:05;20.40;;;11.05;;
38457;SDS011;24239;48.058;10.486;2023-07-13T03:23:31;16.67;;;11.43;;
38457;SDS011;24239;48.058;10.486;2023-07-13T03:26:16;21.02;;;11.50;;
38457;SDS011;24239;48.058;10.486;2023-07-13T03:28:43;20.45;;;10.07;;
38457;SDS011;24239;48.058;10.486;2023-07-13T03:31:14;21.67;;;11.52;;
38457;SDS011;24239;48.058;10.486;2023-07-13T03:33:46;17.48;;;11.05;;
38457;SDS011;24239;48.058;10.486;2023-07-13T03:36:15;20.58;;;13.18;;
38457;SDS011;24239;48.058;10.486;2023-07-13T03:38:50;21.95;;;13.13;;
38457;SDS011;24239;48.058;10.486;2023-07-13T03:41:18;15.93;;;10.98;;
38457;SDS011;24239;48.058;10.486;2023-07-13T03:43:46;17.00;;;11.20;;
38457;SDS011;24239;48.058;10.486;2023-07-13T03:46:15;20.75;;;11.27;;
38457;SDS011;24239;48.058;10.486;2023-07-13T03:48:46;15.40;;;9.05;;
38457;SDS011;24239;48.058;10.486;2023-07-13T03:51:15;16.20;;;9.77;;
38457;SDS011;24239;48.058;10.486;2023-07-13T03:53:46;12.35;;;10.32;;
38457;SDS011;24239;48.058;10.486;2023-07-13T03:56:15;17.33;;;9.13;;
38457;SDS011;24239;48.058;10.486;2023-07-13T03:58:46;13.80;;;9.38;;
38457;SDS011;24239;48.058;10.486;2023-07-13T04:01:13;11.90;;;9.00;;
38457;SDS011;24239;48.058;10.486;2023-07-13T04:03:42;11.55;;;9.00;;
38457;SDS011;24239;48.058;10.486;2023-07-13T04:06:13;10.90;;;8.73;;
38457;SDS011;24239;48.058;10.486;2023-07-13T04:08:46;16.23;;;9.77;;
38457;SDS011;24239;48.058;10.486;2023-07-13T04:11:17;16.27;;;10.60;;
38457;SDS011;24239;48.058;10.486;2023-07-13T04:13:49;17.35;;;9.55;;
38457;SDS011;24239;48.058;10.486;2023-07-13T04:16:16;14.98;;;9.65;;
38457;SDS011;24239;48.058;10.486;2023-07-13T04:18:43;16.50;;;9.85;;
38457;SDS011;24239;48.058;10.486;2023-07-13T04:21:10;15.95;;;10.20;;
38457;SDS011;24239;48.058;10.486;2023-07-13T04:23:37;18.23;;;8.80;;
38457;SDS011;24239;48.058;10.486;2023-07-13T04:26:03;15.40;;;10.27;;
38457;SDS011;24239;48.058;10.486;2023-07-13T04:28:30;17.55;;;10.63;;
38457;SDS011;24239;48.058;10.486;2023-07-13T04:30:56;12.88;;;9.50;;
38457;SDS011;24239;48.058;10.486;2023-07-13T04:33:22;12.82;;;9.60;;
38457;SDS011;24239;48.058;10.486;2023-07-13T04:35:49;11.85;;;7.82;;
38457;SDS011;24239;48.058;10.486;2023-07-13T04:38:19;12.02;;;8.70;;
38457;SDS011;24239;48.058;10.486;2023-07-13T04:40:46;12.07;;;8.02;;
38457;SDS011;24239;48.058;10.486;2023-07-13T04:43:12;15.48;;;8.30;;
38457;SDS011;24239;48.058;10.486;2023-07-13T04:45:39;9.93;;;7.07;;
38457;SDS011;24239;48.058;10.486;2023-07-13T04:48:06;12.57;;;7.25;;
38457;SDS011;24239;48.058;10.486;2023-07-13T04:50:31;9.68;;;8.00;;
38457;SDS011;24239;48.058;10.486;2023-07-13T04:52:57;12.98;;;8.43;;
38457;SDS011;24239;48.058;10.486;2023-07-13T04:55:25;10.55;;;8.25;;
38457;SDS011;24239;48.058;10.486;2023-07-13T04:57:50;9.80;;;8.35;;
38457;SDS011;24239;48.058;10.486;2023-07-13T05:00:16;12.82;;;8.70;;
38457;SDS011;24239;48.058;10.486;2023-07-13T05:02:45;12.50;;;7.57;;
38457;SDS011;24239;48.058;10.486;2023-07-13T05:05:11;14.45;;;8.18;;
38457;SDS011;24239;48.058;10.486;2023-07-13T05:07:37;14.95;;;8.52;;
38457;SDS011;24239;48.058;10.486;2023-07-13T05:10:04;15.65;;;7.82;;
38457;SDS011;24239;48.058;10.486;2023-07-13T05:12:32;10.68;;;8.60;;
38457;SDS011;24239;48.058;10.486;2023-07-13T05:15:02;13.65;;;8.65;;
38457;SDS011;24239;48.058;10.486;2023-07-13T05:17:29;12.00;;;8.40;;
38457;SDS011;24239;48.058;10.486;2023-07-13T05:19:55;12.55;;;8.68;;
38457;SDS011;24239;48.058;10.486;2023-07-13T05:22:26;13.13;;;7.97;;
38457;SDS011;24239;48.058;10.486;2023-07-13T05:24:54;12.38;;;7.85;;
38457;SDS011;24239;48.058;10.486;2023-07-13T05:27:20;11.10;;;5.90;;
38457;SDS011;24239;48.058;10.486;2023-07-13T05:29:49;9.82;;;6.57;;
38457;SDS011;24239;48.058;10.486;2023-07-13T05:32:18;10.18;;;5.38;;
38457;SDS011;24239;48.058;10.486;2023-07-13T05:34:47;9.13;;;4.88;;
38457;SDS011;24239;48.058;10.486;2023-07-13T05:37:14;8.38;;;5.30;;
38457;SDS011;24239;48.058;10.486;2023-07-13T05:39:44;8.82;;;4.05;;
38457;SDS011;24239;48.058;10.486;2023-07-13T05:42:13;10.27;;;4.85;;
38457;SDS011;24239;48.058;10.486;2023-07-13T05:44:43;8.48;;;5.28;;
38457;SDS011;24239;48.058;10.486;2023-07-13T05:47:14;8.57;;;5.25;;
38457;SDS011;24239;48.058;10.486;2023-07-13T05:49:43;9.63;;;4.78;;
38457;SDS011;24239;48.058;10.486;2023-07-13T05:52:09;7.38;;;5.07;;
38457;SDS011;24239;48.058;10.486;2023-07-13T05:54:36;7.28;;;5.43;;
38457;SDS011;24239;48.058;10.486;2023-07-13T05:57:02;10.57;;;5.47;;
38457;SDS011;24239;48.058;10.486;2023-07-13T05:59:31;9.98;;;5.32;;
38457;SDS011;24239;48.058;10.486;2023-07-13T06:01:59;8.68;;;5.18;;
38457;SDS011;24239;48.058;10.486;2023-07-13T06:04:26;8.98;;;5.57;;
38457;SDS011;24239;48.058;10.486;2023-07-13T06:06:52;8.32;;;5.00;;
38457;SDS011;24239;48.058;10.486;2023-07-13T06:09:18;6.22;;;4.60;;
38457;SDS011;24239;48.058;10.486;2023-07-13T06:11:45;7.95;;;4.63;;
38457;SDS011;24239;48.058;10.486;2023-07-13T06:14:12;6.65;;;4.35;;
38457;SDS011;24239;48.058;10.486;2023-07-13T06:16:39;7.97;;;5.18;;
38457;SDS011;24239;48.058;10.486;2023-07-13T06:19:06;8.52;;;4.60;;
38457;SDS011;24239;48.058;10.486;2023-07-13T06:21:32;12.93;;;4.97;;
38457;SDS011;24239;48.058;10.486;2023-07-13T06:23:58;10.50;;;4.38;;
38457;SDS011;24239;48.058;10.486;2023-07-13T06:26:24;5.43;;;4.22;;
38457;SDS011;24239;48.058;10.486;2023-07-13T06:28:50;10.77;;;4.22;;
38457;SDS011;24239;48.058;10.486;2023-07-13T06:31:16;8.23;;;4.53;;
38457;SDS011;24239;48.058;10.486;2023-07-13T06:33:43;10.07;;;4.18;;
38457;SDS011;24239;48.058;10.486;2023-07-13T06:36:10;10.45;;;4.68;;
38457;SDS011;24239;48.058;10.486;2023-07-13T06:38:36;5.53;;;4.28;;
38457;SDS011;24239;48.058;10.486;2023-07-13T06:41:03;7.53;;;4.30;;
38457;SDS011;24239;48.058;10.486;2023-07-13T06:43:31;6.05;;;3.85;;
38457;SDS011;24239;48.058;10.486;2023-07-13T06:45:57;5.10;;;3.75;;
38457;SDS011;24239;48.058;10.486;2023-07-13T06:48:23;8.27;;;4.03;;
38457;SDS011;24239;48.058;10.486;2023-07-13T06:50:49;6.55;;;3.75;;
38457;SDS011;24239;48.058;10.486;2023-07-13T06:53:17;7.80;;;3.45;;
38457;SDS011;24239;48.058;10.486;2023-07-13T06:55:43;19.77;;;16.65;;
38457;SDS011;24239;48.058;10.486;2023-07-13T06:58:11;5.07;;;3.42;;
38457;SDS011;24239;48.058;10.486;2023-07-13T07:00:38;11.32;;;3.78;;
38457;SDS011;24239;48.058;10.486;2023-07-13T07:03:05;5.72;;;3.70;;
38457;SDS011;24239;48.058;10.486;2023-07-13T07:05:31;5.00;;;3.28;;
38457;SDS011;24239;48.058;10.486;2023-07-13T07:07:56;8.43;;;3.70;;
38457;SDS011;24239;48.058;10.486;2023-07-13T07:10:29;4.43;;;3.47;;
38457;SDS011;24239;48.058;10.486;2023-07-13T07:13:00;9.00;;;3.38;;
38457;SDS011;24239;48.058;10.486;2023-07-13T07:15:29;8.45;;;3.42;;
38457;SDS011;24239;48.058;10.486;2023-07-13T07:18:00;6.68;;;3.15;;
38457;SDS011;24239;48.058;10.486;2023-07-13T07:20:26;7.95;;;3.13;;
38457;SDS011;24239;48.058;10.486;2023-07-13T07:22:55;7.72;;;3.15;;
38457;SDS011;24239;48.058;10.486;2023-07-13T07:25:22;10.50;;;3.50;;
38457;SDS011;24239;48.058;10.486;2023-07-13T07:27:49;7.30;;;3.55;;
38457;SDS011;24239;48.058;10.486;2023-07-13T07:30:17;6.65;;;3.25;;
38457;SDS011;24239;48.058;10.486;2023-07-13T07:32:48;7.28;;;3.55;;
38457;SDS011;24239;48.058;10.486;2023-07-13T07:35:17;9.52;;;3.65;;
38457;SDS011;24239;48.058;10.486;2023-07-13T07:37:43;6.13;;;3.47;;
38457;SDS011;24239;48.058;10.486;2023-07-13T07:40:11;5.43;;;3.25;;
38457;SDS011;24239;48.058;10.486;2023-07-13T07:42:40;6.60;;;3.45;;
38457;SDS011;24239;48.058;10.486;2023-07-13T07:45:09;5.03;;;2.97;;
38457;SDS011;24239;48.058;10.486;2023-07-13T07:47:36;7.82;;;3.08;;
38457;SDS011;24239;48.058;10.486;2023-07-13T07:50:03;4.70;;;3.17;;
38457;SDS011;24239;48.058;10.486;2023-07-13T07:52:29;4.05;;;3.20;;
38457;SDS011;24239;48.058;10.486;2023-07-13T07:54:55;5.20;;;3.45;;
38457;SDS011;24239;48.058;10.486;2023-07-13T07:57:22;8.02;;;3.20;;
38457;SDS011;24239;48.058;10.486;2023-07-13T07:59:48;4.43;;;4.03;;
38457;SDS011;24239;48.058;10.486;2023-07-13T08:02:17;5.13;;;3.35;;
38457;SDS011;24239;48.058;10.486;2023-07-13T08:04:45;5.68;;;3.38;;
38457;SDS011;24239;48.058;10.486;2023-07-13T08:07:11;6.82;;;3.30;;
38457;SDS011;24239;48.058;10.486;2023-07-13T08:09:37;5.65;;;3.13;;
38457;SDS011;24239;48.058;10.486;2023-07-13T08:12:03;6.55;;;3.10;;
38457;SDS011;24239;48.058;10.486;2023-07-13T08:14:31;4.60;;;2.78;;
38457;SDS011;24239;48.058;10.486;2023-07-13T08:17:00;5.90;;;3.00;;
38457;SDS011;24239;48.058;10.486;2023-07-13T08:19:27;5.80;;;2.80;;
38457;SDS011;24239;48.058;10.486;2023-07-13T08:21:58;8.07;;;3.35;;
38457;SDS011;24239;48.058;10.486;2023-07-13T08:24:26;7.53;;;3.42;;
38457;SDS011;24239;48.058;10.486;2023-07-13T08:26:56;5.25;;;3.38;;
38457;SDS011;24239;48.058;10.486;2023-07-13T08:29:25;4.55;;;2.75;;
38457;SDS011;24239;48.058;10.486;2023-07-13T08:31:53;5.05;;;3.60;;
38457;SDS011;24239;48.058;10.486;2023-07-13T08:34:19;7.40;;;3.00;;
38457;SDS011;24239;48.058;10.486;2023-07-13T08:36:45;4.88;;;2.80;;
38457;SDS011;24239;48.058;10.486;2023-07-13T08:39:11;7.68;;;2.88;;
38457;SDS011;24239;48.058;10.486;2023-07-13T08:41:38;5.80;;;3.42;;
38457;SDS011;24239;48.058;10.486;2023-07-13T08:44:04;5.60;;;3.13;;
38457;SDS011;24239;48.058;10.486;2023-07-13T08:46:37;7.80;;;3.30;;
38457;SDS011;24239;48.058;10.486;2023-07-13T08:49:08;3.83;;;2.72;;
38457;SDS011;24239;48.058;10.486;2023-07-13T08:51:49;5.18;;;2.67;;
38457;SDS011;24239;48.058;10.486;2023-07-13T08:54:29;5.25;;;2.70;;
38457;SDS011;24239;48.058;10.486;2023-07-13T08:57:02;9.13;;;2.78;;
38457;SDS011;24239;48.058;10.486;2023-07-13T08:59:37;9.50;;;3.08;;
38457;SDS011;24239;48.058;10.486;2023-07-13T09:02:40;8.98;;;3.13;;
38457;SDS011;24239;48.058;10.486;2023-07-13T09:11:05;5.95;;;2.83;;
38457;SDS011;24239;48.058;10.486;2023-07-13T09:15:46;8.80;;;3.35;;
38457;SDS011;24239;48.058;10.486;2023-07-13T09:18:16;5.90;;;2.60;;
38457;SDS011;24239;48.058;10.486;2023-07-13T09:21:04;8.15;;;2.80;;
38457;SDS011;24239;48.058;10.486;2023-07-13T09:23:35;6.45;;;2.28;;
38457;SDS011;24239;48.058;10.486;2023-07-13T09:26:06;4.90;;;2.55;;
38457;SDS011;24239;48.058;10.486;2023-07-13T09:28:49;7.57;;;2.58;;
38457;SDS011;24239;48.058;10.486;2023-07-13T09:31:33;7.32;;;3.28;;
38457;SDS011;24239;48.058;10.486;2023-07-13T09:34:11;7.07;;;3.33;;
38457;SDS011;24239;48.058;10.486;2023-07-13T09:36:40;5.70;;;3.00;;
38457;SDS011;24239;48.058;10.486;2023-07-13T09:47:00;5.93;;;2.72;;
38457;SDS011;24239;48.058;10.486;2023-07-13T09:49:37;10.50;;;3.00;;
38457;SDS011;24239;48.058;10.486;2023-07-13T09:52:07;7.68;;;2.75;;
38457;SDS011;24239;48.058;10.486;2023-07-13T09:54:38;6.82;;;2.80;;
38457;SDS011;24239;48.058;10.486;2023-07-13T09:57:19;6.57;;;2.80;;
38457;SDS011;24239;48.058;10.486;2023-07-13T09:59:53;5.90;;;2.88;;
38457;SDS011;24239;48.058;10.486;2023-07-13T10:04:57;7.70;;;2.58;;
38457;SDS011;24239;48.058;10.486;2023-07-13T10:07:38;5.47;;;2.50;;
38457;SDS011;24239;48.058;10.486;2023-07-13T10:10:13;7.18;;;2.70;;
38457;SDS011;24239;48.058;10.486;2023-07-13T10:12:43;10.90;;;3.45;;
38457;SDS011;24239;48.058;10.486;2023-07-13T10:15:15;7.63;;;2.90;;
38457;SDS011;24239;48.058;10.486;2023-07-13T10:17:45;6.60;;;2.72;;
38457;SDS011;24239;48.058;10.486;2023-07-13T10:20:12;4.80;;;2.25;;
38457;SDS011;24239;48.058;10.486;2023-07-13T10:22:44;5.38;;;2.22;;
38457;SDS011;24239;48.058;10.486;2023-07-13T10:25:25;4.50;;;2.30;;
38457;SDS011;24239;48.058;10.486;2023-07-13T10:28:09;5.13;;;2.38;;
38457;SDS011;24239;48.058;10.486;2023-07-13T10:30:44;6.25;;;2.40;;
38457;SDS011;24239;48.058;10.486;2023-07-13T10:33:12;5.30;;;3.05;;
38457;SDS011;24239;48.058;10.486;2023-07-13T10:35:40;4.90;;;2.22;;
38457;SDS011;24239;48.058;10.486;2023-07-13T10:38:11;3.80;;;2.13;;
38457;SDS011;24239;48.058;10.486;2023-07-13T10:43:38;3.50;;;2.10;;
38457;SDS011;24239;48.058;10.486;2023-07-13T10:46:13;3.20;;;2.00;;
38457;SDS011;24239;48.058;10.486;2023-07-13T10:48:42;3.45;;;1.55;;
38457;SDS011;24239;48.058;10.486;2023-07-13T10:51:13;5.70;;;1.75;;
38457;SDS011;24239;48.058;10.486;2023-07-13T10:53:41;6.72;;;2.15;;
38457;SDS011;24239;48.058;10.486;2023-07-13T11:01:39;5.63;;;1.95;;
38457;SDS011;24239;48.058;10.486;2023-07-13T11:04:13;4.05;;;2.03;;
38457;SDS011;24239;48.058;10.486;2023-07-13T11:06:40;4.78;;;1.75;;
38457;SDS011;24239;48.058;10.486;2023-07-13T11:11:58;5.20;;;1.90;;
38457;SDS011;24239;48.058;10.486;2023-07-13T11:17:23;9.30;;;2.22;;
38457;SDS011;24239;48.058;10.486;2023-07-13T11:19:53;7.25;;;2.10;;
38457;SDS011;24239;48.058;10.486;2023-07-13T11:22:23;4.13;;;1.90;;
38457;SDS011;24239;48.058;10.486;2023-07-13T11:25:01;5.38;;;2.10;;
38457;SDS011;24239;48.058;10.486;2023-07-13T11:27:46;4.80;;;2.13;;
38457;SDS011;24239;48.058;10.486;2023-07-13T11:30:32;7.88;;;1.90;;
38457;SDS011;24239;48.058;10.486;2023-07-13T11:35:40;2.60;;;1.65;;
38457;SDS011;24239;48.058;10.486;2023-07-13T11:38:14;4.03;;;2.13;;
38457;SDS011;24239;48.058;10.486;2023-07-13T11:40:46;6.72;;;1.92;;
38457;SDS011;24239;48.058;10.486;2023-07-13T11:43:15;3.97;;;2.15;;
38457;SDS011;24239;48.058;10.486;2023-07-13T11:45:42;3.97;;;2.05;;
38457;SDS011;24239;48.058;10.486;2023-07-13T11:48:19;4.40;;;1.77;;
38457;SDS011;24239;48.058;10.486;2023-07-13T11:50:55;5.82;;;2.30;;
38457;SDS011;24239;48.058;10.486;2023-07-13T11:53:28;5.50;;;2.37;;
38457;SDS011;24239;48.058;10.486;2023-07-13T11:56:04;5.05;;;1.67;;
38457;SDS011;24239;48.058;10.486;2023-07-13T11:58:31;3.60;;;2.03;;
38457;SDS011;24239;48.058;10.486;2023-07-13T12:00:58;5.35;;;2.00;;
38457;SDS011;24239;48.058;10.486;2023-07-13T12:03:29;6.50;;;2.10;;
38457;SDS011;24239;48.058;10.486;2023-07-13T12:09:10;5.15;;;2.05;;
38457;SDS011;24239;48.058;10.486;2023-07-13T12:11:38;4.63;;;2.22;;
38457;SDS011;24239;48.058;10.486;2023-07-13T12:14:06;6.45;;;2.20;;
38457;SDS011;24239;48.058;10.486;2023-07-13T12:16:44;2.85;;;1.90;;
38457;SDS011;24239;48.058;10.486;2023-07-13T12:19:16;7.15;;;2.05;;
38457;SDS011;24239;48.058;10.486;2023-07-13T12:21:48;7.28;;;2.45;;
38457;SDS011;24239;48.058;10.486;2023-07-13T12:24:19;4.70;;;2.63;;
38457;SDS011;24239;48.058;10.486;2023-07-13T12:26:58;6.28;;;2.08;;
38457;SDS011;24239;48.058;10.486;2023-07-13T12:29:31;17.15;;;2.65;;
38457;SDS011;24239;48.058;10.486;2023-07-13T12:32:00;7.30;;;2.05;;
38457;SDS011;24239;48.058;10.486;2023-07-13T12:34:49;5.45;;;2.35;;
38457;SDS011;24239;48.058;10.486;2023-07-13T12:37:21;7.97;;;2.50;;
38457;SDS011;24239;48.058;10.486;2023-07-13T12:39:48;6.57;;;2.20;;
38457;SDS011;24239;48.058;10.486;2023-07-13T12:44:56;6.22;;;2.60;;
38457;SDS011;24239;48.058;10.486;2023-07-13T12:47:42;5.53;;;2.08;;
38457;SDS011;24239;48.058;10.486;2023-07-13T12:50:15;5.85;;;2.38;;
38457;SDS011;24239;48.058;10.486;2023-07-13T12:52:54;7.10;;;2.30;;
38457;SDS011;24239;48.058;10.486;2023-07-13T12:55:26;3.47;;;2.30;;
38457;SDS011;24239;48.058;10.486;2023-07-13T12:57:58;3.67;;;2.30;;
38457;SDS011;24239;48.058;10.486;2023-07-13T13:00:31;5.63;;;2.45;;
38457;SDS011;24239;48.058;10.486;2023-07-13T13:03:07;6.35;;;2.50;;
38457;SDS011;24239;48.058;10.486;2023-07-13T13:06:06;4.32;;;2.10;;
38457;SDS011;24239;48.058;10.486;2023-07-13T13:08:48;7.25;;;3.00;;
38457;SDS011;24239;48.058;10.486;2023-07-13T13:11:18;8.52;;;2.30;;
38457;SDS011;24239;48.058;10.486;2023-07-13T13:13:51;6.27;;;2.73;;
38457;SDS011;24239;48.058;10.486;2023-07-13T13:18:56;4.55;;;2.40;;
38457;SDS011;24239;48.058;10.486;2023-07-13T13:21:28;4.05;;;2.50;;
38457;SDS011;24239;48.058;10.486;2023-07-13T13:23:58;4.63;;;2.55;;
38457;SDS011;24239;48.058;10.486;2023-07-13T13:26:26;3.05;;;2.13;;
38457;SDS011;24239;48.058;10.486;2023-07-13T13:28:55;5.32;;;2.30;;
38457;SDS011;24239;48.058;10.486;2023-07-13T13:31:23;3.70;;;2.25;;
38457;SDS011;24239;48.058;10.486;2023-07-13T13:33:52;12.93;;;2.58;;
38457;SDS011;24239;48.058;10.486;2023-07-13T13:36:22;3.83;;;2.00;;
38457;SDS011;24239;48.058;10.486;2023-07-13T13:38:52;12.32;;;2.53;;
38457;SDS011;24239;48.058;10.486;2023-07-13T13:41:20;4.57;;;2.20;;
38457;SDS011;24239;48.058;10.486;2023-07-13T13:43:47;4.97;;;2.33;;
38457;SDS011;24239;48.058;10.486;2023-07-13T13:46:23;5.20;;;2.90;;
38457;SDS011;24239;48.058;10.486;2023-07-13T13:48:54;4.20;;;1.98;;
38457;SDS011;24239;48.058;10.486;2023-07-13T13:51:23;5.10;;;2.40;;
38457;SDS011;24239;48.058;10.486;2023-07-13T13:53:52;7.43;;;2.75;;
38457;SDS011;24239;48.058;10.486;2023-07-13T13:56:20;7.30;;;2.70;;
38457;SDS011;24239;48.058;10.486;2023-07-13T13:58:48;3.78;;;2.08;;
38457;SDS011;24239;48.058;10.486;2023-07-13T14:01:21;6.70;;;2.35;;
38457;SDS011;24239;48.058;10.486;2023-07-13T14:03:51;4.45;;;2.30;;
38457;SDS011;24239;48.058;10.486;2023-07-13T14:06:19;6.07;;;2.67;;
38457;SDS011;24239;48.058;10.486;2023-07-13T14:08:48;7.00;;;2.40;;
38457;SDS011;24239;48.058;10.486;2023-07-13T14:11:18;6.95;;;2.60;;
38457;SDS011;24239;48.058;10.486;2023-07-13T14:13:56;4.13;;;2.42;;
38457;SDS011;24239;48.058;10.486;2023-07-13T14:18:58;7.35;;;2.60;;
38457;SDS011;24239;48.058;10.486;2023-07-13T14:21:28;6.50;;;2.53;;
38457;SDS011;24239;48.058;10.486;2023-07-13T14:23:55;6.05;;;2.83;;
38457;SDS011;24239;48.058;10.486;2023-07-13T14:26:28;6.65;;;2.63;;
38457;SDS011;24239;48.058;10.486;2023-07-13T14:29:04;4.75;;;2.72;;
38457;SDS011;24239;48.058;10.486;2023-07-13T14:31:40;5.07;;;2.58;;
38457;SDS011;24239;48.058;10.486;2023-07-13T14:34:12;3.50;;;2.47;;
38457;SDS011;24239;48.058;10.486;2023-07-13T14:36:42;4.82;;;2.55;;
38457;SDS011;24239;48.058;10.486;2023-07-13T14:39:17;8.13;;;2.87;;
38457;SDS011;24239;48.058;10.486;2023-07-13T14:41:52;7.80;;;2.60;;
38457;SDS011;24239;48.058;10.486;2023-07-13T14:44:26;5.80;;;2.90;;
38457;SDS011;24239;48.058;10.486;2023-07-13T14:46:58;9.52;;;2.72;;
38457;SDS011;24239;48.058;10.486;2023-07-13T14:49:38;4.68;;;2.67;;
38457;SDS011;24239;48.058;10.486;2023-07-13T14:52:11;4.47;;;2.33;;
38457;SDS011;24239;48.058;10.486;2023-07-13T14:54:41;5.72;;;2.40;;
38457;SDS011;24239;48.058;10.486;2023-07-13T14:57:10;4.38;;;2.28;;
38457;SDS011;24239;48.058;10.486;2023-07-13T14:59:44;7.53;;;2.55;;
38457;SDS011;24239;48.058;10.486;2023-07-13T15:02:17;5.95;;;2.33;;
38457;SDS011;24239;48.058;10.486;2023-07-13T15:04:52;6.13;;;2.58;;
38457;SDS011;24239;48.058;10.486;2023-07-13T15:07:19;5.82;;;2.70;;
38457;SDS011;24239;48.058;10.486;2023-07-13T15:09:46;4.90;;;2.22;;
38457;SDS011;24239;48.058;10.486;2023-07-13T15:12:15;4.13;;;2.33;;
38457;SDS011;24239;48.058;10.486;2023-07-13T15:14:42;7.30;;;2.17;;
38457;SDS011;24239;48.058;10.486;2023-07-13T15:17:25;7.75;;;2.40;;
38457;SDS011;24239;48.058;10.486;2023-07-13T15:19:57;5.45;;;2.17;;
38457;SDS011;24239;48.058;10.486;2023-07-13T15:22:24;5.47;;;2.40;;
38457;SDS011;24239;48.058;10.486;2023-07-13T15:24:50;4.22;;;2.30;;
38457;SDS011;24239;48.058;10.486;2023-07-13T15:27:16;4.53;;;2.22;;
38457;SDS011;24239;48.058;10.486;2023-07-13T15:29:43;7.72;;;2.47;;
38457;SDS011;24239;48.058;10.486;2023-07-13T15:32:12;7.60;;;2.45;;